AirNav   Everest Fuels
 
 936 users online  

8PS5 HMC Hanger Heliport
Hershey, Pennsylvania, USA

GOING TO HERSHEY?


FAA INFORMATION EFFECTIVE 07 NOVEMBER 2019

Location

FAA Identifier: 8PS5
Lat/Long: 40-15-42.9000N 076-41-04.9500W
40-15.715000N 076-41.082500W
40.2619167,-76.6847083
(estimated)
Elevation: 421 ft. / 128 m (estimated)
Variation: 10W (1985)
From city: 2 miles SW of HERSHEY, PA
Time zone: UTC -5 (UTC -4 during Daylight Saving Time)
Zip code: 17036

Heliport Operations

Heliport use: Private use, MEDICAL USE
Activation date: 04/1988
Control tower: no
ARTCC: NEW YORK CENTER
FSS: WILLIAMSPORT FLIGHT SERVICE STATION
Attendance: CONTINUOUS
Wind indicator: lighted
Segmented circle: no
Lights: ACTVT PERIMETER LGTS - 123.050.

Heliport Communications

UNICOM: 123.05
WX ASOS at MDT (5 nm SW): PHONE 717-944-1372
WX ASOS at CXY (8 nm W): PHONE 717-770-0880
WX ASOS at MUI (12 nm NE): 124.175 (717-861-2536)
WX AWOS-2 at 9D4 (17 nm E): 118.45 (717-866-2906)
WX ASOS at LNS (20 nm SE): 125.675 (717-569-8860)

Nearby radio navigation aids

VOR radial/distance  VOR name  Freq  Var
HARr108/17.8HARRISBURG VORTAC112.5010W
RAVr204/17.9RAVINE VORTAC114.6011W
LRPr304/19.9LANCASTER VOR/DME117.3009W
SEGr172/33.0SELINSGROVE VOR/DME110.4008W

 
NDB name  Hdg/Dist  Freq  Var  ID
ENOLA096/9.920411WMD -- -..
BELLGROVE220/12.132810WBZJ -... --.. .---

Heliport Services

Fuel available: A

Runway Information

Helipad H1

Dimensions: 80 x 80 ft. / 24 x 24 m
Surface: concrete
Latitude: 40-15.715000N
Longitude: 076-41.082500W
Elevation: 421.0 ft.
Traffic pattern: leftleft

Heliport Ownership and Management from official FAA records

Ownership: Privately-owned
Owner: THE MILTON S HERSHEY MED CNTR
BOX 850 500 UNIVERSITY DRIVE
HERSHEY, PA 17033
Phone 717-531-7365
Manager: TIM KARGES
BOX 850 500 UNIVERSITY DRIVE
HERSHEY, PA 17033
Phone 717-531-5879

Heliport Operational Statistics

Aircraft based on the field: 2
Helicopters: 2
    

Additional Remarks

A40 PERIMETER LGTS
40 FT CIRC TLOF MARKED.
FOR CD CTC HARRISBURG APCH AT 800-932-0712.

Instrument Procedures

There are no published instrument procedures at 8PS5.

Some nearby airports with instrument procedures:

58N - Reigle Field Airport (5 nm E)
KMDT - Harrisburg International Airport (5 nm SW)
KCXY - Capital City Airport (8 nm W)
N71 - Donegal Springs Airpark (11 nm SE)
KMUI - Muir Army Airfield (Fort Indiantown Gap) (12 nm NE)
08N - Keller Brothers Airport (16 nm E)
9D4 - Deck Airport (17 nm E)
74N - Bendigo Airport (19 nm N)
KLNS - Lancaster Airport (20 nm SE)
 
Loc | Ops | Rwys | IFR | FBO | Links
Com | Nav | Svcs | Stats | Notes
Area around 8PS5 (HMC Hanger Heliport)
 
Road maps at: MapQuest Bing Google
 
Aerial photo
No photo
 
Sectional chart

 
Airport distance calculator
Flying to HMC Hanger Heliport? Find the distance to fly.

From to 8PS5

Sunrise and sunset
Times for 19-Nov-2019
 Local
(UTC-5)
 Zulu
(UTC)
Morning civil twilight06:2911:29
Sunrise06:5811:58
Sunset16:4621:46
Evening civil twilight17:1622:16

Current date and time
Zulu (UTC)  20-Nov-2019 03:08:00
Local (UTC-5)  19-Nov-2019 22:08:00
 
METAR
KMDT 
5nm SW 
200256Z 00000KT 10SM OVC060 08/01 A2988 RMK AO2 SLP120 T00830006 51013
KCXY 
8nm W 
200256Z AUTO 00000KT 10SM OVC060 09/01 A2989 RMK AO2 SLP123 T00890006 51014
KMUI 
11nm NE 
200256Z AUTO 00000KT 10SM OVC070 05/01 A2988 RMK AO2 SLP124 T00480006 52012
KLNS 
20nm SE 
200253Z 00000KT 10SM OVC049 07/01 A2988 RMK AO2 SLP121 T00720006 53012
TAF
KMDT 
5nm SW 
192139Z 1922/2018 VRB05KT P6SM SCT150 FM192300 30005KT P6SM BKN150 FM201300 31012KT P6SM SCT045
KMUI 
11nm NE 
191900Z 1919/2101 29006KT 9999 SCT040 QNH2977INS BECMG 1923/1924 35006KT 9999 SCT020 SCT250 QNH2983INS BECMG 2002/2003 35006KT 9999 OVC020 620202 QNH2989INS BECMG 2014/2015 35010KT 9999 SCT020 BKN030 620304 QNH3006INS BECMG 2100/2101 33009KT 9999 SCT030 QNH3010INS TX12/1921Z TN04/2012Z LAST NO AMDS AFT 2004 NEXT 2011
KLNS 
20nm SE 
192140Z 1922/2018 VRB05KT P6SM SCT150 FM200100 30005KT P6SM BKN150 FM201300 31012KT P6SM SCT045
NOTAMs
Click for the latest NOTAMs
NOTAMs are issued by the DoD/FAA and will open in a separate window not controlled by AirNav.

 

 
 

Would you like to see your business listed on this page?

 If your business provides an interesting product or service to pilots, flight crews, aircraft, or users of the HMC Hanger Heliport, you should consider listing it here.  To start the listing process, click on the button below
 
Add a business
 

Other Pages about HMC Hanger Heliport

Update a link
 
Copyright © AirNav, LLC. All rights reserved. Privacy Policy  Contact